Chatham, Michigan
Current Conditions -  °F | °C
As of 5:57 AM on Friday 19 Dec 2014 (Local Time) from KSAW Reporting Station
Overcast Overcast  
Wind Chill: 21°   Ceiling: 2000
Heat Index: 21°   Visibility: 10mi
Dew Point: 18°   Wind: 0mph
Humidity: 91%   Direction: NA
Pressure: 30.23"   Gusts: NA
Location:  46.35°N, 86.93°W
Report Text: KSAW 191057Z AUTO 00000KT 10SM OVC020 M06/M08 A3023 RMK AO2 T10631076
Loading
Personal Weather Stations






























Interactive Weather Map New forecast layout! Learn more

10-Day Weather Forecast

Advertisements
Track Severe Weather on mobile